Airfield :
LOGIN :

Register | Disclaimer

   EN    FR    IT 

 










Legend :    VFR   Marginal VFR   IFR   Intensive IFR   Very Intensive IFR
Visi :
Ceiling :
>= 8 km
>= 3000ft
5 to 8 km
1000 to 3000 ft
1500m to 5 km
500 to 1000 ft
800 to 1500m
200 to 500 ft
< 800m
< 200 ft
Symbols :   Thunderstorms  Fog  Heavy snow  Heavy precipitations  Wind > 20 kt
SIGMETs :     Misc.  Thunderstorms  Icing  Turbulence  Mountain Waves  Volcanic Ashes






- Airport Elevation : 362 ft
- IATA code : WAW


EPWA - Warsaw Okecie

CURRENT METAR :
  • 300200Z 33009KT CAVOK 10/05 Q1019 NOSIG

EXPIRED METARs :
  • 300130Z 32007KT CAVOK 10/05 Q1019 NOSIG
  • 300100Z 33008KT CAVOK 10/05 Q1019 NOSIG
  • 300030Z 33008KT CAVOK 10/05 Q1019 NOSIG
  • 300000Z 34009KT CAVOK 10/04 Q1019 NOSIG
  • 292330Z 35012KT CAVOK 12/04 Q1019 NOSIG

TAF TAF EPWA
Valid from the 30 at 00:00 until the 31 at 00:00 UTC


292330Z 3000/3024 35012KT CAVOK
TEMPO 3008/3018 35017G28KT
TEMPO 3018/3024 35017G28KT 4000 RA BKN014



MET'MAP, your aeronautical weather chart ! - Copyright ORBIFLY December 2007 - Disclaimer

ORBIFLY MET'MAP TEAM :

Programming & Development : Alexandra Zaïnal
Concept & original design : Baudouin d'Aumeries
Assistance for programming : Marc-Olivier Méhu
Technical & hardware support : Manuel Goepfert

Contact : metmap@orbifly.com




SOURCES & CREDITS :

   NOAA